Time;durP1;ratioP1;P1;durP2;ratioP2;P2;SDS_P1;SDS_P2;PMS_P1;PMS_P2;Temp;Humidity;BMP_temperature;BMP_pressure;BME280_temperature;BME280_humidity;BME280_pressure;Samples;Min_cycle;Max_cycle;Signal;HPM_P1;HPM_P2
2022/07/17 00:00:02;;;;;;;681.28;636.70;;;13.90;68.90;;;;;;5076129;28;20551;-86
2022/07/17 00:02:28;;;;;;;696.33;649.58;;;14.00;69.40;;;;;;5078088;28;20046;-87
2022/07/17 00:04:54;;;;;;;700.25;654.45;;;13.90;68.50;;;;;;5099659;28;20032;-87
2022/07/17 00:07:20;;;;;;;720.15;672.28;;;13.90;68.80;;;;;;5075027;28;20111;-88
2022/07/17 00:09:45;;;;;;;677.70;632.22;;;13.80;69.90;;;;;;5076593;28;20122;-87
2022/07/17 00:12:11;;;;;;;681.63;637.00;;;13.70;68.70;;;;;;5070641;28;20067;-87
2022/07/17 00:14:37;;;;;;;662.72;619.65;;;13.70;69.10;;;;;;5074795;28;20060;-87
2022/07/17 00:17:03;;;;;;;677.00;631.00;;;13.70;69.50;;;;;;5063767;28;20024;-87
2022/07/17 00:19:28;;;;;;;685.42;640.20;;;13.70;69.20;;;;;;5059721;28;20036;-88
2022/07/17 00:21:54;;;;;;;707.70;658.35;;;13.60;70.20;;;;;;5083492;28;20032;-87
2022/07/17 00:24:20;;;;;;;696.45;649.78;;;13.60;70.10;;;;;;5095808;28;20032;-87
2022/07/17 00:26:51;;;;;;;699.63;652.70;;;13.60;69.30;;;;;;5086082;28;20047;-86
2022/07/17 00:29:17;;;;;;;721.60;673.85;;;13.60;69.30;;;;;;5099549;28;20023;-90
2022/07/17 00:31:43;;;;;;;686.38;640.72;;;13.50;69.30;;;;;;5098409;28;20036;-87
2022/07/17 00:34:09;;;;;;;681.03;636.33;;;13.50;71.30;;;;;;5098508;28;20031;-87
2022/07/17 00:36:35;;;;;;;690.28;645.72;;;13.50;69.90;;;;;;5082616;28;20028;-87
2022/07/17 00:39:01;;;;;;;685.55;639.72;;;13.50;70.20;;;;;;5081226;28;20016;-87
2022/07/17 00:41:27;;;;;;;653.03;610.95;;;13.50;71.50;;;;;;5062826;28;20036;-87
2022/07/17 00:43:53;;;;;;;691.63;646.67;;;13.50;70.70;;;;;;5081040;28;20036;-86
2022/07/17 00:46:18;;;;;;;694.90;649.90;;;13.50;70.90;;;;;;5096065;28;20028;-86
2022/07/17 00:48:44;;;;;;;696.35;649.60;;;13.50;69.30;;;;;;5073902;28;20491;-86
2022/07/17 00:51:10;;;;;;;644.78;602.70;;;13.50;70.10;;;;;;5104045;28;20024;-87
2022/07/17 00:53:37;;;;;;;675.38;630.38;;;13.50;71.70;;;;;;5092242;28;20043;-87
2022/07/17 00:56:04;;;;;;;685.33;640.63;;;13.50;70.20;;;;;;5107960;28;20212;-87
2022/07/17 00:58:34;;;;;;;704.72;659.20;;;13.40;71.20;;;;;;5085478;28;20499;-87
2022/07/17 01:01:02;;;;;;;668.03;624.33;;;13.40;70.80;;;;;;5101387;28;20066;-86
2022/07/17 01:03:28;;;;;;;675.85;631.20;;;13.40;71.00;;;;;;5085406;28;20055;-86
2022/07/17 01:05:54;;;;;;;717.60;669.50;;;13.30;71.40;;;;;;5078443;28;20142;-85
2022/07/17 01:08:19;;;;;;;698.67;652.20;;;13.30;71.70;;;;;;5095837;28;20701;-86
2022/07/17 01:10:45;;;;;;;692.15;646.40;;;13.30;71.50;;;;;;5074138;28;20035;-87
2022/07/17 01:13:11;;;;;;;676.30;632.63;;;13.20;72.70;;;;;;5058184;28;20032;-87
2022/07/17 01:15:39;;;;;;;712.15;664.33;;;13.30;72.80;;;;;;5077187;28;20550;-88
2022/07/17 01:18:11;;;;;;;687.78;642.30;;;13.20;73.00;;;;;;5075068;28;20541;-86
2022/07/17 01:20:38;;;;;;;734.88;685.42;;;13.10;72.80;;;;;;5091397;28;20092;-87
2022/07/17 01:23:05;;;;;;;699.33;653.35;;;13.10;72.90;;;;;;5104727;28;20026;-87
2022/07/17 01:25:31;;;;;;;697.20;650.38;;;13.10;72.40;;;;;;5083173;28;20020;-87
2022/07/17 01:27:57;;;;;;;697.72;651.13;;;13.10;73.40;;;;;;5093967;28;20020;-90
2022/07/17 01:30:23;;;;;;;674.85;630.78;;;13.00;73.40;;;;;;5085117;28;20028;-87
2022/07/17 01:32:48;;;;;;;690.25;644.22;;;12.90;74.50;;;;;;5084355;28;20032;-87
2022/07/17 01:35:15;;;;;;;692.42;646.33;;;12.90;74.40;;;;;;5101415;28;20032;-87
2022/07/17 01:37:43;;;;;;;679.85;634.63;;;12.90;73.70;;;;;;5062993;28;20028;-88
2022/07/17 01:40:14;;;;;;;705.63;657.85;;;12.80;76.70;;;;;;5096464;28;20561;-87
2022/07/17 01:42:43;;;;;;;686.03;640.70;;;12.70;75.30;;;;;;5075018;28;20138;-87
2022/07/17 01:45:10;;;;;;;728.08;679.38;;;12.70;76.50;;;;;;5095891;28;20325;-88
2022/07/17 01:47:35;;;;;;;656.88;612.97;;;12.70;75.80;;;;;;5095393;28;20032;-86
2022/07/17 01:50:05;;;;;;;690.58;642.38;;;12.70;76.90;;;;;;5073315;28;20034;-90
2022/07/17 01:52:30;;;;;;;698.33;650.05;;;12.70;76.20;;;;;;5085325;28;20028;-86
2022/07/17 01:54:56;;;;;;;669.15;623.92;;;12.70;76.30;;;;;;5088200;28;20110;-87
2022/07/17 01:57:22;;;;;;;677.55;632.20;;;12.60;77.00;;;;;;5103681;28;20020;-87
2022/07/17 01:59:48;;;;;;;703.47;655.58;;;12.60;76.80;;;;;;5104204;28;20475;-87
2022/07/17 02:02:17;;;;;;;667.50;622.30;;;12.60;77.30;;;;;;5064341;28;20533;-87
2022/07/17 02:04:43;;;;;;;679.58;634.05;;;12.50;77.80;;;;;;5078947;28;20011;-87
2022/07/17 02:07:10;;;;;;;674.80;628.45;;;12.50;78.00;;;;;;5096013;28;20084;-87
2022/07/17 02:09:36;;;;;;;662.53;618.20;;;12.50;79.50;;;;;;5096954;28;20039;-87
2022/07/17 02:12:02;;;;;;;654.67;611.20;;;12.50;80.10;;;;;;5094888;28;20023;-88
2022/07/17 02:14:28;;;;;;;667.47;623.55;;;12.50;78.70;;;;;;5096158;28;20044;-87
2022/07/17 02:16:54;;;;;;;667.50;622.80;;;12.40;79.20;;;;;;5088488;28;20396;-86
2022/07/17 02:19:20;;;;;;;648.75;605.38;;;12.30;78.90;;;;;;5091041;28;20039;-86
2022/07/17 02:21:46;;;;;;;672.97;627.38;;;12.40;78.40;;;;;;5085137;28;20036;-86
2022/07/17 02:24:12;;;;;;;656.15;611.47;;;12.30;79.10;;;;;;5087997;28;20033;-86
2022/07/17 02:26:38;;;;;;;651.65;607.60;;;12.40;79.70;;;;;;5083734;28;20122;-87
2022/07/17 02:29:04;;;;;;;669.90;625.92;;;12.30;78.70;;;;;;5086073;28;20650;-87
2022/07/17 02:31:30;;;;;;;667.22;622.63;;;12.30;78.90;;;;;;5076843;28;20036;-86
2022/07/17 02:33:55;;;;;;;689.38;642.10;;;12.30;79.10;;;;;;5100545;28;20067;-87
2022/07/17 02:36:21;;;;;;;664.80;621.00;;;12.30;79.90;;;;;;5078436;28;20391;-87
2022/07/17 02:38:47;;;;;;;679.10;632.97;;;12.20;80.30;;;;;;5078411;28;20050;-87
2022/07/17 02:41:12;;;;;;;645.70;602.58;;;12.30;80.00;;;;;;5099315;28;20035;-86
2022/07/17 02:43:38;;;;;;;641.28;599.55;;;12.30;79.80;;;;;;5075201;28;20093;-87
2022/07/17 02:46:04;;;;;;;634.13;591.38;;;12.30;80.10;;;;;;5073397;28;20031;-87
2022/07/17 02:48:29;;;;;;;656.67;613.65;;;12.50;79.50;;;;;;5090920;28;20031;-87
2022/07/17 02:50:55;;;;;;;696.42;649.20;;;12.40;78.80;;;;;;5084287;28;20035;-87
2022/07/17 02:53:21;;;;;;;655.17;611.45;;;12.40;79.40;;;;;;5103949;28;20027;-87
2022/07/17 02:55:46;;;;;;;687.33;641.63;;;12.30;80.10;;;;;;5050309;28;20035;-87
2022/07/17 02:58:12;;;;;;;659.28;616.03;;;12.30;80.50;;;;;;5068848;28;20023;-86
2022/07/17 03:00:38;;;;;;;661.80;618.00;;;12.30;80.40;;;;;;5064281;28;20088;-89
2022/07/17 03:03:03;;;;;;;614.17;574.47;;;12.20;81.20;;;;;;5048371;28;20076;-87
2022/07/17 03:05:29;;;;;;;660.70;616.95;;;12.20;81.90;;;;;;5081038;28;20023;-87
2022/07/17 03:07:55;;;;;;;657.65;612.83;;;12.10;82.10;;;;;;5077364;28;20032;-87
2022/07/17 03:10:20;;;;;;;640.80;599.95;;;12.10;81.00;;;;;;5094662;28;20024;-87
2022/07/17 03:12:46;;;;;;;622.38;582.03;;;12.00;83.10;;;;;;5074558;28;20501;-89
2022/07/17 03:15:12;;;;;;;627.75;586.42;;;12.00;82.90;;;;;;5070154;28;20575;-87
2022/07/17 03:17:39;;;;;;;668.47;622.95;;;11.90;83.40;;;;;;5077903;28;20055;-87
2022/07/17 03:20:05;;;;;;;626.47;585.60;;;11.90;83.90;;;;;;5079783;28;20138;-87
2022/07/17 03:22:31;;;;;;;668.38;623.65;;;11.90;83.70;;;;;;5062636;28;21012;-88
2022/07/17 03:24:57;;;;;;;653.65;610.20;;;11.90;84.00;;;;;;5062904;28;20538;-87
2022/07/17 03:27:22;;;;;;;654.53;612.17;;;11.90;83.60;;;;;;5062241;28;20059;-87
2022/07/17 03:29:48;;;;;;;668.17;623.75;;;11.80;85.40;;;;;;5076705;28;20024;-87
2022/07/17 03:32:15;;;;;;;638.05;596.58;;;11.80;85.10;;;;;;5078671;28;20123;-87
2022/07/17 03:34:41;;;;;;;641.78;600.10;;;11.80;84.60;;;;;;5077200;28;20028;-86
2022/07/17 03:37:07;;;;;;;654.63;611.53;;;11.80;85.00;;;;;;5072240;28;20028;-86
2022/07/17 03:39:33;;;;;;;647.92;605.28;;;11.70;84.40;;;;;;5076623;28;20032;-87
2022/07/17 03:41:58;;;;;;;667.22;624.50;;;11.80;85.20;;;;;;5071870;28;20369;-87
2022/07/17 03:44:24;;;;;;;672.15;627.42;;;11.70;84.40;;;;;;5072010;28;20094;-87
2022/07/17 03:46:50;;;;;;;651.08;608.53;;;11.80;85.10;;;;;;5068038;28;20709;-87
2022/07/17 03:49:15;;;;;;;674.08;630.85;;;11.80;84.90;;;;;;5078710;28;20093;-86
2022/07/17 03:51:41;;;;;;;647.25;604.15;;;11.80;85.10;;;;;;5079567;28;20406;-87
2022/07/17 03:54:07;;;;;;;662.60;618.95;;;11.90;84.20;;;;;;5078494;28;20024;-86
2022/07/17 03:56:33;;;;;;;662.05;617.75;;;12.00;84.20;;;;;;5075008;28;20027;-87
2022/07/17 03:58:59;;;;;;;633.75;593.45;;;12.00;83.90;;;;;;5073540;28;20029;-87
2022/07/17 04:01:24;;;;;;;693.85;648.03;;;12.10;84.00;;;;;;5072352;28;20462;-87
2022/07/17 04:03:50;;;;;;;633.13;592.80;;;12.20;83.90;;;;;;5074817;28;20024;-86
2022/07/17 04:06:16;;;;;;;646.22;603.97;;;12.20;84.40;;;;;;5075790;28;20522;-87
2022/07/17 04:08:42;;;;;;;631.03;590.38;;;12.30;83.10;;;;;;5070347;28;20032;-87
2022/07/17 04:11:07;;;;;;;684.13;638.45;;;12.40;83.50;;;;;;5070596;28;20121;-87
2022/07/17 04:13:33;;;;;;;749.88;690.33;;;12.50;82.20;;;;;;5059707;28;20452;-88
2022/07/17 04:16:00;;;;;;;647.45;606.42;;;12.60;81.50;;;;;;5074242;28;20491;-87
2022/07/17 04:18:34;;;;;;;673.22;630.35;;;12.60;82.20;;;;;;5073843;28;20032;-87
2022/07/17 04:21:02;;;;;;;636.95;595.72;;;12.70;81.50;;;;;;5085457;28;20044;-87
2022/07/17 04:23:28;;;;;;;680.67;634.15;;;12.70;81.80;;;;;;5086179;28;20033;-87
2022/07/17 04:25:54;;;;;;;674.13;629.42;;;12.80;80.20;;;;;;5083502;28;20521;-87
2022/07/17 04:28:20;;;;;;;643.55;601.35;;;12.90;79.40;;;;;;5083545;28;20452;-86
2022/07/17 04:30:46;;;;;;;650.35;607.80;;;12.90;81.50;;;;;;5087125;28;20048;-88
2022/07/17 04:33:12;;;;;;;624.92;584.85;;;13.00;80.00;;;;;;5091180;28;20020;-87
2022/07/17 04:35:38;;;;;;;619.08;578.88;;;13.10;78.90;;;;;;5085396;28;20103;-87
2022/07/17 04:38:05;;;;;;;611.38;572.13;;;13.20;80.30;;;;;;5083825;28;20012;-87
2022/07/17 04:40:32;;;;;;;611.30;570.72;;;13.30;78.50;;;;;;5080961;28;20488;-89
2022/07/17 04:42:58;;;;;;;570.25;533.38;;;13.30;80.50;;;;;;5080847;28;20020;-87
2022/07/17 04:45:24;;;;;;;606.95;566.85;;;13.30;79.30;;;;;;5079224;28;20085;-88
2022/07/17 04:47:49;;;;;;;620.47;580.60;;;13.30;79.40;;;;;;5068691;28;20028;-87
2022/07/17 04:50:15;;;;;;;583.42;546.38;;;13.40;79.80;;;;;;5091820;28;20024;-88
2022/07/17 04:52:41;;;;;;;530.85;499.15;;;13.50;79.60;;;;;;5090408;28;20043;-87
2022/07/17 04:55:07;;;;;;;603.17;563.53;;;13.60;79.10;;;;;;5082723;28;20034;-88
2022/07/17 04:57:33;;;;;;;574.05;536.75;;;13.70;78.30;;;;;;5084537;28;20033;-88
2022/07/17 04:59:59;;;;;;;567.85;531.30;;;13.80;76.60;;;;;;5079545;28;20025;-87
2022/07/17 05:02:24;;;;;;;611.63;570.60;;;13.70;77.00;;;;;;5084991;28;20032;-88
2022/07/17 05:04:50;;;;;;;809.20;745.83;;;13.80;76.40;;;;;;5078902;28;20039;-87
2022/07/17 05:07:16;;;;;;;656.60;610.13;;;13.90;75.60;;;;;;5082222;28;20454;-87
2022/07/17 05:09:42;;;;;;;557.05;521.67;;;13.80;76.10;;;;;;5078670;28;20028;-89
2022/07/17 05:12:08;;;;;;;552.45;518.03;;;13.90;76.50;;;;;;5079357;28;20032;-87
2022/07/17 05:14:34;;;;;;;582.38;542.88;;;13.90;75.70;;;;;;5086187;28;20104;-86
2022/07/17 05:17:00;;;;;;;563.47;528.15;;;14.00;74.80;;;;;;5094482;28;20032;-87
2022/07/17 05:19:26;;;;;;;604.78;564.03;;;14.10;76.00;;;;;;5088520;28;20027;-88
2022/07/17 05:21:51;;;;;;;576.55;539.53;;;14.10;74.60;;;;;;5087918;28;20024;-87
2022/07/17 05:24:17;;;;;;;539.30;506.33;;;14.20;75.30;;;;;;5086337;28;20035;-88
2022/07/17 05:26:43;;;;;;;573.25;536.78;;;14.20;75.80;;;;;;5087517;28;20560;-87
2022/07/17 05:29:08;;;;;;;531.95;497.08;;;14.20;75.80;;;;;;5091039;28;20043;-88
2022/07/17 05:31:34;;;;;;;558.70;524.28;;;14.40;74.40;;;;;;5086151;28;20055;-88
2022/07/17 05:34:00;;;;;;;607.63;567.42;;;14.40;74.20;;;;;;5058815;28;20035;-87
2022/07/17 05:36:25;;;;;;;611.88;572.20;;;14.50;72.00;;;;;;5082173;28;20024;-87
2022/07/17 05:38:51;;;;;;;718.67;668.15;;;14.50;72.00;;;;;;5084783;28;20031;-87
2022/07/17 05:41:17;;;;;;;572.80;535.78;;;14.60;70.20;;;;;;5061395;28;20484;-87
2022/07/17 05:43:42;;;;;;;551.78;515.50;;;14.70;72.10;;;;;;5075676;28;20107;-89
2022/07/17 05:46:08;;;;;;;753.35;676.50;;;14.70;71.50;;;;;;5032677;28;20467;-87
2022/07/17 05:48:34;;;;;;;629.00;586.97;;;14.80;69.10;;;;;;5062574;28;20036;-88
2022/07/17 05:50:59;;;;;;;605.65;563.92;;;14.80;71.10;;;;;;5080382;28;20101;-87
2022/07/17 05:53:25;;;;;;;578.20;541.22;;;14.90;70.20;;;;;;5072195;28;20058;-88
2022/07/17 05:55:51;;;;;;;549.13;514.08;;;14.90;70.50;;;;;;5083838;28;20063;-88
2022/07/17 05:58:17;;;;;;;610.17;569.10;;;14.90;69.90;;;;;;5047727;28;20035;-88
2022/07/17 06:00:43;;;;;;;601.65;562.75;;;15.00;69.60;;;;;;5075743;28;20040;-87
2022/07/17 06:03:09;;;;;;;546.83;513.47;;;15.10;69.40;;;;;;5060953;28;20037;-88
2022/07/17 06:05:35;;;;;;;488.00;458.15;;;15.10;72.30;;;;;;5051557;28;20487;-89
2022/07/17 06:08:01;;;;;;;591.00;552.33;;;15.10;71.90;;;;;;5085130;28;20024;-90
2022/07/17 06:10:27;;;;;;;521.88;489.52;;;15.20;71.50;;;;;;5070559;28;20024;-88
2022/07/17 06:12:53;;;;;;;526.42;493.58;;;15.20;70.90;;;;;;5063637;28;20063;-88
2022/07/17 06:15:20;;;;;;;556.97;524.08;;;15.20;71.20;;;;;;5064741;28;20055;-88
2022/07/17 06:17:46;;;;;;;521.40;490.52;;;15.40;71.00;;;;;;5090420;28;20024;-88
2022/07/17 06:20:13;;;;;;;560.03;526.22;;;15.30;71.80;;;;;;5081235;28;20510;-89
2022/07/17 06:22:40;;;;;;;488.00;459.60;;;15.40;70.00;;;;;;5096081;28;20027;-87
2022/07/17 06:25:06;;;;;;;601.03;561.30;;;15.40;71.60;;;;;;5103815;28;20020;-88
2022/07/17 06:27:32;;;;;;;536.47;503.30;;;15.70;68.80;;;;;;5084650;28;20032;-88
2022/07/17 06:29:58;;;;;;;546.97;516.92;;;15.70;71.50;;;;;;5095068;28;20394;-87
2022/07/17 06:32:24;;;;;;;684.13;638.45;;;15.70;71.40;;;;;;5080556;28;20051;-88
2022/07/17 06:34:50;;;;;;;551.10;519.30;;;15.90;68.70;;;;;;5099514;28;20127;-87
2022/07/17 06:37:15;;;;;;;722.03;671.05;;;15.90;70.50;;;;;;5078887;28;20042;-88
2022/07/17 06:39:41;;;;;;;553.05;520.20;;;16.10;67.80;;;;;;5073156;28;20059;-89
2022/07/17 06:42:07;;;;;;;526.60;494.98;;;16.10;68.60;;;;;;5090425;28;20053;-91
2022/07/17 06:44:34;;;;;;;479.15;451.58;;;16.30;70.00;;;;;;5093368;28;20065;-88
2022/07/17 06:47:00;;;;;;;665.13;615.13;;;16.40;69.90;;;;;;5096032;28;20016;-88
2022/07/17 06:49:25;;;;;;;483.52;455.85;;;16.40;66.50;;;;;;5100883;28;20415;-87
2022/07/17 06:51:51;;;;;;;519.70;489.33;;;16.50;65.40;;;;;;5103808;28;20030;-88
2022/07/17 06:54:16;;;;;;;523.88;492.35;;;16.70;68.10;;;;;;5090056;28;20088;-88
2022/07/17 06:56:42;;;;;;;481.45;453.63;;;16.80;67.00;;;;;;5101705;28;20046;-89
2022/07/17 06:59:08;;;;;;;491.30;462.65;;;17.00;67.40;;;;;;5084677;28;20171;-88
2022/07/17 07:01:35;;;;;;;527.20;497.20;;;17.00;65.50;;;;;;5077577;28;20035;-87
2022/07/17 07:04:00;;;;;;;539.00;506.17;;;17.10;66.40;;;;;;5075324;28;20062;-88
2022/07/17 07:06:26;;;;;;;570.55;533.90;;;17.30;64.50;;;;;;5072237;28;20032;-89
2022/07/17 07:08:52;;;;;;;524.85;493.02;;;17.40;63.80;;;;;;5069497;28;20028;-90
2022/07/17 07:11:17;;;;;;;447.13;421.55;;;17.40;65.00;;;;;;5072735;28;20699;-87
2022/07/17 07:13:43;;;;;;;621.00;578.17;;;17.60;66.80;;;;;;5042109;28;20556;-89
2022/07/17 07:16:09;;;;;;;597.85;545.63;;;17.70;63.40;;;;;;5094752;28;20016;-89
2022/07/17 07:18:34;;;;;;;552.72;513.67;;;17.90;63.50;;;;;;5089190;28;20036;-89
2022/07/17 07:21:00;;;;;;;580.42;542.08;;;17.90;61.80;;;;;;5098144;28;20446;-89
2022/07/17 07:23:26;;;;;;;523.05;490.83;;;17.90;61.30;;;;;;5059931;28;20042;-90
2022/07/17 07:25:51;;;;;;;564.03;527.95;;;18.00;63.20;;;;;;5075249;28;20106;-90
2022/07/17 07:28:17;;;;;;;498.85;468.77;;;18.20;60.80;;;;;;5073976;28;20375;-89
2022/07/17 07:30:42;;;;;;;571.95;536.22;;;18.40;65.50;;;;;;5081505;28;20036;-88
2022/07/17 07:33:08;;;;;;;467.75;438.85;;;18.30;61.70;;;;;;5061751;28;20031;-90
2022/07/17 07:35:34;;;;;;;525.47;492.88;;;18.50;62.50;;;;;;5074341;28;20540;-89
2022/07/17 07:37:59;;;;;;;530.92;497.50;;;18.60;60.50;;;;;;5058774;28;20025;-88
2022/07/17 07:40:25;;;;;;;551.63;516.25;;;18.90;60.40;;;;;;5071021;28;20062;-88
2022/07/17 07:42:51;;;;;;;518.08;484.02;;;19.00;58.70;;;;;;5071551;28;20082;-89
2022/07/17 07:45:16;;;;;;;562.63;525.63;;;19.20;62.80;;;;;;5070267;28;20034;-87
2022/07/17 07:47:48;;;;;;;528.78;495.45;;;19.40;60.70;;;;;;5068914;28;20027;-88
2022/07/17 07:50:14;;;;;;;595.08;554.85;;;19.70;59.40;;;;;;5078125;28;20080;-87
2022/07/17 07:52:40;;;;;;;607.00;566.42;;;19.50;56.40;;;;;;5080805;28;20043;-88
2022/07/17 07:55:08;;;;;;;581.17;542.63;;;19.60;55.80;;;;;;5079725;28;20778;-89
2022/07/17 07:57:34;;;;;;;551.50;515.22;;;19.70;57.10;;;;;;5073590;28;20032;-87
2022/07/17 07:59:59;;;;;;;610.75;569.58;;;19.80;59.10;;;;;;5062984;28;20036;-88
2022/07/17 08:02:25;;;;;;;262.08;247.52;;;20.00;58.50;;;;;;5096690;28;20044;-87
2022/07/17 08:04:51;;;;;;;469.20;443.73;;;20.20;54.30;;;;;;5097421;28;20024;-86
2022/07/17 08:07:17;;;;;;;374.15;355.27;;;20.40;51.50;;;;;;5057810;28;20528;-88
2022/07/17 08:09:42;;;;;;;390.75;368.83;;;20.50;52.70;;;;;;5074887;28;20480;-88
2022/07/17 08:12:08;;;;;;;401.58;380.60;;;20.70;54.30;;;;;;5091699;28;20055;-87
2022/07/17 08:14:33;;;;;;;395.85;373.63;;;20.90;50.50;;;;;;5070702;28;20052;-86
2022/07/17 08:16:59;;;;;;;547.90;510.88;;;21.00;50.30;;;;;;5058199;28;20027;-86
2022/07/17 08:19:25;;;;;;;642.95;433.70;;;21.20;47.80;;;;;;5103169;28;20475;-87
2022/07/17 08:21:50;;;;;;;876.08;806.08;;;21.40;47.10;;;;;;5078219;28;20035;-84
2022/07/17 08:24:16;;;;;;;891.85;816.25;;;21.30;47.30;;;;;;5097192;28;20131;-85
2022/07/17 08:26:42;;;;;;;862.67;784.33;;;21.50;47.40;;;;;;5088793;28;20033;-85
2022/07/17 08:29:08;;;;;;;1999.90;999.90;;;21.60;45.90;;;;;;5076469;28;20044;-85
2022/07/17 08:31:33;;;;;;;1999.90;999.90;;;21.80;44.00;;;;;;5054911;28;20510;-86
2022/07/17 08:33:59;;;;;;;1999.90;999.90;;;21.70;44.80;;;;;;5066581;28;20031;-86
2022/07/17 08:36:25;;;;;;;1999.90;999.90;;;21.80;42.10;;;;;;5069676;28;20782;-85
2022/07/17 08:38:51;;;;;;;1999.90;999.90;;;22.00;40.80;;;;;;5087965;28;20028;-86
2022/07/17 08:41:17;;;;;;;1999.90;999.90;;;22.30;43.80;;;;;;5074982;28;20032;-85
2022/07/17 08:43:44;;;;;;;1999.90;999.90;;;22.50;42.20;;;;;;5070144;28;20396;-89
2022/07/17 08:46:13;;;;;;;1999.90;999.90;;;22.40;39.00;;;;;;5094952;28;20055;-88
2022/07/17 08:48:44;;;;;;;1999.90;999.90;;;22.50;39.40;;;;;;5082809;28;20017;-88
2022/07/17 08:51:11;;;;;;;1999.90;999.90;;;22.50;39.60;;;;;;5101816;28;20043;-89
2022/07/17 08:53:37;;;;;;;1999.90;999.90;;;22.90;38.10;;;;;;5076634;28;20051;-88
2022/07/17 08:56:03;;;;;;;1999.90;999.90;;;22.70;38.90;;;;;;5095836;28;20021;-90
2022/07/17 08:58:29;;;;;;;1999.90;999.90;;;22.80;37.80;;;;;;5083721;28;20028;-89
2022/07/17 09:00:55;;;;;;;1999.90;999.90;;;22.90;34.80;;;;;;5063867;28;20032;-88
2022/07/17 09:03:23;;;;;;;1999.90;999.90;;;23.00;34.70;;;;;;5100831;28;20056;-87
2022/07/17 09:05:49;;;;;;;1999.90;999.90;;;23.40;35.70;;;;;;5096307;28;20051;-88
2022/07/17 09:08:21;;;;;;;1999.90;999.90;;;23.40;33.70;;;;;;5079501;28;20388;-91
2022/07/17 09:10:51;;;;;;;1999.90;999.90;;;23.50;33.30;;;;;;5079118;28;20032;-87
2022/07/17 09:13:23;;;;;;;1999.90;999.90;;;23.20;37.30;;;;;;5068431;28;20040;-87
2022/07/17 09:15:52;;;;;;;1999.90;999.90;;;23.80;37.80;;;;;;5084528;28;20036;-88
2022/07/17 09:18:18;;;;;;;1999.90;999.90;;;23.90;34.50;;;;;;5091674;28;20103;-88
2022/07/17 09:20:56;;;;;;;1999.90;999.90;;;24.00;35.90;;;;;;5098516;28;20030;-87
2022/07/17 09:23:24;;;;;;;1999.90;999.90;;;24.20;33.00;;;;;;5060275;28;20039;-88
2022/07/17 09:25:55;;;;;;;593.75;103.93;;;24.20;32.30;;;;;;5085673;28;20081;-88
2022/07/17 09:28:22;;;;;;;1999.90;999.90;;;24.10;33.00;;;;;;5079320;28;20490;-88
2022/07/17 09:30:54;;;;;;;1999.90;999.90;;;23.80;32.60;;;;;;5094418;28;20032;-87
2022/07/17 09:33:26;;;;;;;1999.90;999.90;;;24.20;32.50;;;;;;5077754;28;20077;-82
2022/07/17 09:35:53;;;;;;;1786.03;823.28;;;24.20;34.60;;;;;;5096916;28;20069;-83
2022/07/17 09:38:30;;;;;;;1999.90;999.90;;;24.40;31.90;;;;;;5078983;28;20466;-83
2022/07/17 09:41:22;;;;;;;1999.90;999.90;;;24.30;31.20;;;;;;5075390;28;20028;-83
2022/07/17 09:43:57;;;;;;;1839.38;822.70;;;24.60;31.40;;;;;;5079464;28;20075;-86
2022/07/17 09:46:24;;;;;;;1999.90;999.90;;;24.80;32.70;;;;;;5075523;28;20059;-84
2022/07/17 09:48:56;;;;;;;1752.03;799.47;;;24.80;29.30;;;;;;5097069;28;20093;-86
2022/07/17 09:51:29;;;;;;;1999.90;999.90;;;25.10;31.60;;;;;;5104736;28;20028;-89
2022/07/17 09:54:01;;;;;;;1999.90;999.90;;;24.90;29.30;;;;;;5077692;28;20025;-86
2022/07/17 09:56:29;;;;;;;1611.72;763.08;;;24.80;30.00;;;;;;5094202;28;20016;-85
2022/07/17 09:59:04;;;;;;;1859.47;821.53;;;24.70;32.60;;;;;;5096523;28;20027;-89
2022/07/17 10:01:30;;;;;;;1999.90;999.90;;;24.90;35.40;;;;;;5078558;28;20059;-88
2022/07/17 10:03:56;;;;;;;1099.45;388.00;;;25.10;29.20;;;;;;5093010;28;20455;-84
2022/07/17 10:06:23;;;;;;;1635.05;766.13;;;25.40;29.90;;;;;;5093659;28;20067;-85
2022/07/17 10:08:49;;;;;;;1673.35;798.50;;;25.20;30.00;;;;;;5075024;28;20047;-85
2022/07/17 10:11:16;;;;;;;1999.90;999.90;;;25.20;30.20;;;;;;5094271;28;20572;-86
2022/07/17 10:13:44;;;;;;;1882.43;828.65;;;25.30;30.80;;;;;;5085957;28;20052;-86
2022/07/17 10:16:11;;;;;;;1999.90;999.90;;;25.50;32.70;;;;;;5066659;28;20083;-85
2022/07/17 10:18:44;;;;;;;1792.55;797.80;;;25.50;30.70;;;;;;5100611;28;20021;-85
2022/07/17 10:21:21;;;;;;;1999.90;999.90;;;25.60;30.00;;;;;;5061457;28;20082;-85
2022/07/17 10:23:53;;;;;;;1999.90;999.90;;;25.90;30.20;;;;;;5082205;28;20059;-86
2022/07/17 10:26:54;;;;;;;1999.90;999.90;;;26.00;27.80;;;;;;5096865;28;20023;-86
2022/07/17 10:29:25;;;;;;;1999.90;999.90;;;26.10;28.00;;;;;;4995669;28;20116;-86
2022/07/17 10:31:52;;;;;;;1733.97;781.33;;;26.30;27.10;;;;;;5062199;28;20499;-86
2022/07/17 10:34:18;;;;;;;1388.97;313.55;;;26.40;28.00;;;;;;5075319;28;20020;-87
2022/07/17 10:36:44;;;;;;;1063.90;251.98;;;26.20;28.70;;;;;;5072321;28;20110;-86
2022/07/17 10:39:20;;;;;;;1802.30;802.13;;;26.40;27.40;;;;;;5075553;28;20084;-86
2022/07/17 10:42:35;;;;;;;1265.53;217.43;;;26.70;26.40;;;;;;5076846;28;20161;-85
2022/07/17 10:45:42;;;;;;;1952.05;403.35;;;26.60;29.40;;;;;;5080997;28;20036;-85
2022/07/17 10:48:22;;;;;;;1207.60;324.20;;;27.10;28.60;;;;;;5102065;28;20392;-86
2022/07/17 10:50:52;;;;;;;1999.90;999.90;;;27.10;26.70;;;;;;5077460;28;20507;-84
2022/07/17 10:53:22;;;;;;;;;;;27.10;28.00;;;;;;5080104;28;20032;-88
2022/07/17 10:55:49;;;;;;;;;;;27.00;26.30;;;;;;5097494;28;20002;-87
2022/07/17 10:58:16;;;;;;;1929.43;707.78;;;27.10;25.60;;;;;;5073903;28;19986;-86
2022/07/17 11:00:42;;;;;;;1999.90;861.17;;;26.30;26.10;;;;;;5096074;28;20035;-89
2022/07/17 11:03:12;;;;;;;1999.90;967.28;;;26.50;25.20;;;;;;5079664;28;20037;-85
2022/07/17 11:05:38;;;;;;;;;;;27.00;25.90;;;;;;5076309;28;20032;-83
2022/07/17 11:08:09;;;;;;;1999.90;840.20;;;27.60;24.20;;;;;;5071730;28;20394;-83
2022/07/17 11:10:37;;;;;;;1999.90;999.90;;;28.10;25.40;;;;;;5088163;28;20486;-86
2022/07/17 11:13:15;;;;;;;1999.90;999.90;;;29.10;23.50;;;;;;5072777;28;20486;-83
2022/07/17 11:15:46;;;;;;;1999.90;999.90;;;29.80;22.40;;;;;;5098239;28;20040;-82
2022/07/17 11:18:17;;;;;;;1999.90;999.90;;;29.90;23.30;;;;;;5091482;28;20020;-82
2022/07/17 11:20:55;;;;;;;1999.90;999.90;;;30.10;21.80;;;;;;5094246;28;20030;-84
2022/07/17 11:23:24;;;;;;;1999.90;999.90;;;30.90;19.50;;;;;;5092790;28;20028;-83
2022/07/17 11:26:00;;;;;;;1999.90;999.90;;;29.70;21.40;;;;;;5072126;28;20115;-83
2022/07/17 11:28:28;;;;;;;1999.90;999.90;;;31.10;20.40;;;;;;5094436;28;20566;-81
2022/07/17 11:30:54;;;;;;;1999.90;999.90;;;31.20;20.00;;;;;;5093845;28;20063;-82
2022/07/17 11:33:19;;;;;;;1999.90;999.90;;;31.20;20.20;;;;;;5078940;28;20059;-82
2022/07/17 11:35:48;;;;;;;1999.90;999.90;;;31.30;19.30;;;;;;5069548;28;20054;-82
2022/07/17 11:38:14;;;;;;;1999.90;999.90;;;31.00;19.70;;;;;;5074619;28;20026;-86
2022/07/17 11:40:48;;;;;;;1999.90;999.90;;;30.90;20.90;;;;;;5069271;28;20024;-83
2022/07/17 11:43:14;;;;;;;1999.90;999.90;;;31.00;18.90;;;;;;5090346;28;20034;-84
2022/07/17 11:45:41;;;;;;;1999.90;999.90;;;30.90;20.30;;;;;;5099155;28;20047;-83
2022/07/17 11:48:06;;;;;;;1999.90;999.90;;;32.00;19.90;;;;;;5101424;28;20028;-83
2022/07/17 11:50:32;;;;;;;1999.90;999.90;;;33.10;18.40;;;;;;5103435;28;20039;-84
2022/07/17 11:53:03;;;;;;;1999.90;999.90;;;31.60;16.90;;;;;;5098824;28;20593;-84
2022/07/17 11:55:40;;;;;;;1999.90;999.90;;;31.70;18.50;;;;;;5073108;28;20019;-83
2022/07/17 11:58:07;;;;;;;1999.90;999.90;;;31.60;17.20;;;;;;5079495;28;20036;-81
2022/07/17 12:00:33;;;;;;;1999.90;999.90;;;31.00;19.30;;;;;;5082966;28;20157;-84
2022/07/17 12:03:04;;;;;;;1999.90;999.90;;;31.70;18.50;;;;;;5091019;28;20391;-82
2022/07/17 12:05:32;;;;;;;1999.90;999.90;;;31.20;17.30;;;;;;5070025;28;20040;-84